TimeGMT,TemperatureF,Dew PointF,Humidity,Sea Level PressureIn,VisibilityMPH,Wind Direction,Wind SpeedMPH,Gust SpeedMPH,PrecipitationIn,Events,Conditions,WindDirDegrees,DateUTC
12:00 AM,46,39,67,29.67,5,West,18.4,,,,Partly Cloudy,270,2012-12-05 00:00:00
3:00 AM,44,40,80,29.62,12,WNW,19.6,,,Hail,Light Hail Showers,300,2012-12-05 03:00:00
3:50 AM,44.6,39.2,81,29.59,6.2,NW,15.0,-,N/A,,Partly Cloudy,320,2012-12-05 03:50:00
4:20 AM,44.6,39.2,81,29.59,6.2,NW,18.4,-,N/A,,Scattered Clouds,310,2012-12-05 04:20:00
4:50 AM,44.6,39.2,81,29.62,6.2,NW,21.9,-,N/A,,Scattered Clouds,320,2012-12-05 04:50:00
5:20 AM,44.6,39.2,81,29.62,6.2,NW,24.2,-,N/A,,Scattered Clouds,320,2012-12-05 05:20:00
5:50 AM,44.6,39.2,81,29.62,6.2,NNW,25.3,-,N/A,,Scattered Clouds,330,2012-12-05 05:50:00
6:00 AM,45,38,70,29.65,25,NW,21.9,,,Rain,Light Rain Showers,320,2012-12-05 06:00:00
6:20 AM,44.6,39.2,81,29.65,6.2,NW,26.5,-,N/A,,Mostly Cloudy,320,2012-12-05 06:20:00
6:50 AM,44.6,39.2,81,29.65,6.2,NNW,21.9,-,N/A,,Mostly Cloudy,330,2012-12-05 06:50:00
7:20 AM,44.6,39.2,81,29.68,6.2,NNW,16.1,-,N/A,Rain,Light Rain Showers,330,2012-12-05 07:20:00
7:50 AM,44.6,39.2,81,29.68,6.2,NW,21.9,38.0,N/A,Rain,Light Rain Showers,320,2012-12-05 07:50:00
8:20 AM,42.8,39.2,87,29.71,6.2,NNW,19.6,-,N/A,Rain,Rain Showers,330,2012-12-05 08:20:00
8:50 AM,42.8,39.2,87,29.71,6.2,NW,18.4,-,N/A,,Mostly Cloudy,320,2012-12-05 08:50:00
9:00 AM,43,39,79,29.75,16,NW,17.3,,,Hail,Light Hail Showers,320,2012-12-05 09:00:00
9:20 AM,44.6,37.4,76,29.74,6.2,NNW,12.7,-,N/A,,Scattered Clouds,340,2012-12-05 09:20:00
9:50 AM,44.6,39.2,81,29.74,6.2,North,15.0,28.8,N/A,,Scattered Clouds,350,2012-12-05 09:50:00
10:20 AM,44.6,37.4,76,29.77,6.2,North,17.3,-,N/A,,Scattered Clouds,350,2012-12-05 10:20:00
10:50 AM,46.4,37.4,71,29.77,6.2,NNW,21.9,-,N/A,,Scattered Clouds,340,2012-12-05 10:50:00
11:20 AM,44.6,37.4,76,29.80,6.2,NNW,12.7,24.2,N/A,,Mostly Cloudy,330,2012-12-05 11:20:00
11:50 AM,44.6,37.4,76,29.80,6.2,North,18.4,-,N/A,Rain,Light Rain Showers,350,2012-12-05 11:50:00
12:00 PM,46,38,65,29.81,16,North,21.9,,,Rain,Light Rain Showers,350,2012-12-05 12:00:00
12:20 PM,44.6,37.4,76,29.80,6.2,North,19.6,-,N/A,Rain,Light Rain Showers,360,2012-12-05 12:20:00
12:50 PM,42.8,37.4,81,29.80,6.2,North,20.7,-,N/A,,Scattered Clouds,350,2012-12-05 12:50:00
2:50 PM,42.8,33.8,70,29.86,6.2,NNW,18.4,-,N/A,,Scattered Clouds,340,2012-12-05 14:50:00
3:00 PM,43,33,58,29.89,28,North,16.1,,,,Partly Cloudy,350,2012-12-05 15:00:00
3:20 PM,41.0,32.0,70,29.89,6.2,North,13.8,-,N/A,,Partly Cloudy,10,2012-12-05 15:20:00
3:50 PM,42.8,30.2,61,29.89,6.2,North,17.3,-,N/A,,Partly Cloudy,360,2012-12-05 15:50:00
4:20 PM,41.0,30.2,65,29.92,6.2,NNW,13.8,-,N/A,,Partly Cloudy,340,2012-12-05 16:20:00
4:50 PM,41.0,30.2,65,29.92,6.2,North,13.8,-,N/A,,Partly Cloudy,350,2012-12-05 16:50:00
5:20 PM,41.0,30.2,65,29.95,6.2,North,16.1,-,N/A,,Partly Cloudy,350,2012-12-05 17:20:00
5:50 PM,41.0,30.2,65,29.95,6.2,NNW,9.2,-,N/A,,Partly Cloudy,340,2012-12-05 17:50:00
6:00 PM,41,30,54,29.97,37,NNW,13.8,,,,Partly Cloudy,340,2012-12-05 18:00:00
6:20 PM,41.0,30.2,65,29.95,6.2,NNW,6.9,-,N/A,,Partly Cloudy,340,2012-12-05 18:20:00
6:50 PM,42.8,30.2,61,29.98,6.2,NNW,15.0,-,N/A,,Partly Cloudy,340,2012-12-05 18:50:00
7:20 PM,42.8,30.2,61,29.98,6.2,NNW,13.8,-,N/A,,Partly Cloudy,340,2012-12-05 19:20:00
7:50 PM,42.8,30.2,61,29.98,6.2,NNW,10.4,-,N/A,,Partly Cloudy,330,2012-12-05 19:50:00
8:20 PM,42.8,30.2,61,30.01,6.2,NNW,11.5,-,N/A,,Partly Cloudy,340,2012-12-05 20:20:00
8:50 PM,42.8,30.2,61,30.01,6.2,North,11.5,-,N/A,,Partly Cloudy,350,2012-12-05 20:50:00
9:00 PM,42,30,51,30.03,37,North,16.1,,,,Scattered Clouds,350,2012-12-05 21:00:00